createdAt,value
2022-08-26T00:02:17.171Z,96541.30
2022-08-26T00:04:49.682Z,96539.91
2022-08-26T00:07:19.806Z,96534.72
2022-08-26T00:09:48.835Z,96537.44
2022-08-26T00:12:18.440Z,96538.36
2022-08-26T00:14:46.618Z,96533.89
2022-08-26T00:17:14.895Z,96533.29
2022-08-26T00:19:43.248Z,96527.43
2022-08-26T00:22:11.507Z,96529.01
2022-08-26T00:24:40.186Z,96525.88
2022-08-26T00:27:16.487Z,96530.09
2022-08-26T00:29:46.591Z,96529.17
2022-08-26T00:32:14.964Z,96530.09
2022-08-26T00:34:43.395Z,96528.73
2022-08-26T00:37:15.631Z,96526.92
2022-08-26T00:39:45.654Z,96524.38
2022-08-26T00:42:14.168Z,96520.02
2022-08-26T00:44:42.431Z,96522.92
2022-08-26T00:47:22.832Z,96524.56
2022-08-26T00:49:51.820Z,96521.16
2022-08-26T00:52:23.191Z,96524.13
2022-08-26T00:55:00.966Z,96526.66
2022-08-26T00:57:32.310Z,96525.64
2022-08-26T01:00:03.381Z,96527.95
2022-08-26T01:02:31.611Z,96526.98
2022-08-26T01:05:04.004Z,96528.42
2022-08-26T01:07:34.759Z,96527.67
2022-08-26T01:10:09.106Z,96530.92
2022-08-26T01:12:43.118Z,96531.42
2022-08-26T01:15:16.435Z,96532.98
2022-08-26T01:17:45.003Z,96530.42
2022-08-26T01:20:29.967Z,96522.90
2022-08-26T01:23:03.222Z,96524.50
2022-08-26T01:25:35.122Z,96529.94
2022-08-26T01:28:08.519Z,96526.11
2022-08-26T01:30:41.003Z,96526.27
2022-08-26T01:33:11.844Z,96527.77
2022-08-26T01:35:40.476Z,96527.20
2022-08-26T01:38:09.951Z,96526.34
2022-08-26T01:40:39.715Z,96526.06
2022-08-26T01:43:11.058Z,96527.13
2022-08-26T01:45:41.649Z,96525.73
2022-08-26T01:48:15.711Z,96527.72
2022-08-26T01:50:46.320Z,96531.54
2022-08-26T01:53:17.537Z,96528.66
2022-08-26T01:55:49.960Z,96527.05
2022-08-26T01:58:24.894Z,96529.73
2022-08-26T02:00:53.184Z,96529.06
2022-08-26T02:03:22.612Z,96527.84
2022-08-26T02:06:03.475Z,96528.09
2022-08-26T02:08:39.500Z,96525.94
2022-08-26T02:11:08.035Z,96528.55
2022-08-26T02:13:42.887Z,96528.17
2022-08-26T02:16:12.334Z,96530.02
2022-08-26T02:18:43.084Z,96529.78
2022-08-26T02:21:13.711Z,96529.09
2022-08-26T02:23:42.968Z,96531.27
2022-08-26T02:26:19.361Z,96530.35
2022-08-26T02:28:59.617Z,96532.12
2022-08-26T02:31:28.179Z,96534.41
2022-08-26T02:34:08.227Z,96536.75
2022-08-26T02:36:39.282Z,96540.15
2022-08-26T02:39:08.590Z,96535.21
2022-08-26T02:41:45.033Z,96536.45
2022-08-26T02:44:13.943Z,96535.63
2022-08-26T02:46:44.505Z,96535.90
2022-08-26T02:49:17.213Z,96535.94
2022-08-26T02:51:46.957Z,96534.23
2022-08-26T02:54:15.955Z,96528.49
2022-08-26T02:56:44.922Z,96530.80
2022-08-26T02:59:13.859Z,96524.17
2022-08-26T03:01:42.772Z,96528.02
2022-08-26T03:04:12.623Z,96525.64
2022-08-26T03:06:42.551Z,96530.11
2022-08-26T03:09:18.501Z,96533.83
2022-08-26T03:11:47.407Z,96531.05
2022-08-26T03:14:15.790Z,96533.09
2022-08-26T03:16:44.473Z,96531.98
2022-08-26T03:19:17.625Z,96537.31
2022-08-26T03:21:47.352Z,96538.36
2022-08-26T03:24:17.490Z,96534.09
2022-08-26T03:26:52.160Z,96536.98
2022-08-26T03:29:40.745Z,96537.77
2022-08-26T03:32:09.606Z,96539.41
2022-08-26T03:34:38.885Z,96537.50
2022-08-26T03:37:08.137Z,96532.11
2022-08-26T03:39:37.248Z,96536.67
2022-08-26T03:42:06.446Z,96532.83
2022-08-26T03:44:34.915Z,96534.02
2022-08-26T03:47:03.570Z,96534.91
2022-08-26T03:49:35.169Z,96534.10
2022-08-26T03:52:04.676Z,96536.88
2022-08-26T03:54:34.566Z,96538.77
2022-08-26T03:57:02.883Z,96538.21
2022-08-26T03:59:31.614Z,96537.71
2022-08-26T04:01:59.832Z,96537.15
2022-08-26T04:04:28.093Z,96539.59
2022-08-26T04:06:59.328Z,96544.02
2022-08-26T04:09:28.475Z,96539.25
2022-08-26T04:11:59.039Z,96538.69
2022-08-26T04:14:28.003Z,96532.74
2022-08-26T04:16:56.799Z,96538.08
2022-08-26T04:19:27.427Z,96536.61
2022-08-26T04:21:55.906Z,96536.18
2022-08-26T04:24:27.984Z,96534.52
2022-08-26T04:26:56.870Z,96530.44
2022-08-26T04:29:27.094Z,96533.89
2022-08-26T04:31:56.639Z,96533.14
2022-08-26T04:34:29.850Z,96532.00
2022-08-26T04:37:02.024Z,96532.70
2022-08-26T04:39:31.097Z,96529.70
2022-08-26T04:42:00.566Z,96530.82
2022-08-26T04:44:31.019Z,96533.29
2022-08-26T04:46:59.387Z,96537.31
2022-08-26T04:49:35.388Z,96535.50
2022-08-26T04:52:05.391Z,96534.85
2022-08-26T04:54:33.611Z,96533.21
2022-08-26T04:57:01.766Z,96532.52
2022-08-26T04:59:30.042Z,96537.91
2022-08-26T05:01:59.841Z,96538.64
2022-08-26T05:04:28.052Z,96540.96
2022-08-26T05:07:02.747Z,96542.52
2022-08-26T05:09:31.325Z,96542.64
2022-08-26T05:11:59.828Z,96540.81
2022-08-26T05:14:28.195Z,96541.70
2022-08-26T05:16:57.110Z,96543.12
2022-08-26T05:19:25.477Z,96545.67
2022-08-26T05:21:56.272Z,96542.84
2022-08-26T05:24:24.479Z,96545.69
2022-08-26T05:26:53.413Z,96547.29
2022-08-26T05:29:21.632Z,96544.30
2022-08-26T05:31:53.517Z,96546.27
2022-08-26T05:34:25.727Z,96547.36
2022-08-26T05:36:59.731Z,96544.52
2022-08-26T05:39:28.534Z,96547.50
2022-08-26T05:41:56.765Z,96547.72
2022-08-26T05:44:25.174Z,96547.23
2022-08-26T05:46:53.565Z,96546.98
2022-08-26T05:49:26.220Z,96546.97
2022-08-26T05:51:55.374Z,96548.11
2022-08-26T05:54:23.867Z,96549.13
2022-08-26T05:56:52.436Z,96546.92
2022-08-26T05:59:21.398Z,96546.20
2022-08-26T06:01:55.109Z,96542.42
2022-08-26T06:04:27.953Z,96540.71
2022-08-26T06:06:58.015Z,96540.39
2022-08-26T06:09:27.613Z,96538.46
2022-08-26T06:11:56.546Z,96538.75
2022-08-26T06:14:26.348Z,96538.01
2022-08-26T06:16:55.260Z,96539.98
2022-08-26T06:19:23.787Z,96545.74
2022-08-26T06:21:54.695Z,96545.63
2022-08-26T06:24:41.734Z,96547.19
2022-08-26T06:27:14.001Z,96544.89
2022-08-26T06:29:43.615Z,96543.29
2022-08-26T06:32:12.127Z,96542.03
2022-08-26T06:34:40.369Z,96544.36
2022-08-26T06:37:09.125Z,96548.27
2022-08-26T06:39:41.072Z,96548.90
2022-08-26T06:42:11.760Z,96551.04
2022-08-26T06:44:41.879Z,96550.77
2022-08-26T06:47:12.965Z,96548.89
2022-08-26T06:49:41.104Z,96548.35
2022-08-26T06:52:09.917Z,96550.33
2022-08-26T06:54:41.903Z,96548.48
2022-08-26T06:57:13.085Z,96548.66
2022-08-26T06:59:42.738Z,96548.71
2022-08-26T07:02:13.600Z,96552.95
2022-08-26T07:04:42.066Z,96553.06
2022-08-26T07:07:14.662Z,96553.00
2022-08-26T07:09:42.742Z,96545.73
2022-08-26T07:12:10.856Z,96539.02
2022-08-26T07:14:39.611Z,96539.77
2022-08-26T07:17:11.096Z,96539.08
2022-08-26T07:19:42.197Z,96538.10
2022-08-26T07:22:11.151Z,96531.11
2022-08-26T07:24:42.476Z,96529.60
2022-08-26T07:27:14.180Z,96525.94
2022-08-26T07:29:44.103Z,96522.88
2022-08-26T07:32:15.580Z,96523.45
2022-08-26T07:34:44.764Z,96522.06
2022-08-26T07:37:12.958Z,96520.33
2022-08-26T07:39:43.160Z,96519.34
2022-08-26T07:42:15.960Z,96516.13
2022-08-26T07:44:47.345Z,96517.37
2022-08-26T07:47:24.667Z,96514.96
2022-08-26T07:49:56.209Z,96516.91
2022-08-26T07:52:27.651Z,96515.43
2022-08-26T07:54:58.440Z,96514.10
2022-08-26T07:57:28.567Z,96515.05
2022-08-26T07:59:57.571Z,96513.79
2022-08-26T08:02:28.490Z,96511.20
2022-08-26T08:04:58.080Z,96512.38
2022-08-26T08:07:44.267Z,96506.90
2022-08-26T08:10:17.878Z,96506.13
2022-08-26T08:12:47.626Z,96501.13
2022-08-26T08:15:17.918Z,96496.95
2022-08-26T08:17:46.454Z,96496.64
2022-08-26T08:20:20.391Z,96492.59
2022-08-26T08:22:49.159Z,96494.21
2022-08-26T08:25:17.671Z,96489.02
2022-08-26T08:27:45.969Z,96487.13
2022-08-26T08:30:20.868Z,96484.92
2022-08-26T08:32:52.972Z,96484.02
2022-08-26T08:35:22.819Z,96477.73
2022-08-26T08:37:54.650Z,96473.27
2022-08-26T08:40:26.473Z,96474.09
2022-08-26T08:43:01.528Z,96472.55
2022-08-26T08:45:47.975Z,96471.06
2022-08-26T08:48:29.419Z,96469.14
2022-08-26T08:51:23.792Z,96462.53
2022-08-26T08:53:55.844Z,96466.11
2022-08-26T08:56:27.011Z,96463.09
2022-08-26T08:59:04.217Z,96458.26
2022-08-26T09:02:21.293Z,96458.02
2022-08-26T09:05:15.237Z,96455.90
2022-08-26T09:07:49.286Z,96452.17
2022-08-26T09:10:39.180Z,96455.13
2022-08-26T09:13:13.860Z,96454.70
2022-08-26T09:16:04.441Z,96453.10
2022-08-26T09:18:55.581Z,96448.27
2022-08-26T09:21:25.593Z,96444.57
2022-08-26T09:23:56.747Z,96441.06
2022-08-26T09:26:42.922Z,96440.13
2022-08-26T09:29:24.057Z,96438.09
2022-08-26T09:32:13.399Z,96436.75
2022-08-26T09:34:55.412Z,96435.06
2022-08-26T09:40:23.525Z,96429.42
2022-08-26T09:43:22.465Z,96426.92
2022-08-26T09:45:59.437Z,96423.42
2022-08-26T09:48:41.024Z,96424.27
2022-08-26T09:51:25.019Z,96424.46
2022-08-26T09:53:59.121Z,96422.27
2022-08-26T09:56:33.961Z,96423.42
2022-08-26T09:59:04.018Z,96424.20
2022-08-26T10:01:44.801Z,96421.73
2022-08-26T10:04:22.183Z,96419.05
2022-08-26T10:07:07.621Z,96413.10
2022-08-26T10:09:43.278Z,96412.99
2022-08-26T10:12:17.226Z,96412.29
2022-08-26T10:14:50.416Z,96417.68
2022-08-26T10:17:43.353Z,96412.11
2022-08-26T10:20:24.912Z,96407.94
2022-08-26T10:23:02.875Z,96409.02
2022-08-26T10:25:51.640Z,96409.01
2022-08-26T10:28:39.982Z,96404.16
2022-08-26T10:31:19.997Z,96403.48
2022-08-26T10:33:52.561Z,96405.77
2022-08-26T10:37:05.044Z,96399.69
2022-08-26T10:40:02.376Z,96397.46
2022-08-26T10:42:40.696Z,96400.29
2022-08-26T10:45:22.602Z,96400.95
2022-08-26T10:48:05.436Z,96397.01
2022-08-26T10:50:38.570Z,96398.42
2022-08-26T10:53:32.512Z,96393.41
2022-08-26T10:56:32.334Z,96383.73
2022-08-26T10:59:20.734Z,96379.33
2022-08-26T11:02:12.962Z,96378.80
2022-08-26T11:05:05.834Z,96377.90
2022-08-26T11:07:46.339Z,96374.65
2022-08-26T11:10:16.936Z,96372.70
2022-08-26T11:12:49.353Z,96370.53
2022-08-26T11:15:24.845Z,96377.02
2022-08-26T11:17:53.338Z,96369.06
2022-08-26T11:20:33.862Z,96374.39
2022-08-26T11:23:24.066Z,96373.63
2022-08-26T11:26:10.341Z,96373.55
2022-08-26T11:28:50.208Z,96375.39
2022-08-26T11:31:25.462Z,96378.84
2022-08-26T11:34:02.059Z,96378.98
2022-08-26T11:36:33.713Z,96373.16
2022-08-26T11:39:14.273Z,96374.19
2022-08-26T11:41:52.940Z,96373.36
2022-08-26T11:44:28.379Z,96373.22
2022-08-26T11:47:01.706Z,96370.40
2022-08-26T11:49:33.393Z,96363.34
2022-08-26T11:52:20.845Z,96361.09
2022-08-26T11:55:09.018Z,96359.20
2022-08-26T11:57:48.174Z,96359.33
2022-08-26T12:00:24.649Z,96350.54
2022-08-26T12:02:58.058Z,96349.73
2022-08-26T12:05:31.359Z,96343.16
2022-08-26T12:08:11.832Z,96347.90
2022-08-26T12:10:43.020Z,96345.06
2022-08-26T12:13:22.775Z,96337.11
2022-08-26T12:16:00.279Z,96332.17
2022-08-26T12:18:34.338Z,96332.32
2022-08-26T12:21:20.659Z,96332.80
2022-08-26T12:23:57.632Z,96335.31
2022-08-26T12:26:35.335Z,96333.95
2022-08-26T12:29:26.593Z,96327.65
2022-08-26T12:32:13.617Z,96321.81
2022-08-26T12:34:43.697Z,96322.09
2022-08-26T12:37:14.688Z,96323.45
2022-08-26T12:39:45.010Z,96325.07
2022-08-26T12:42:16.026Z,96322.85
2022-08-26T12:45:06.755Z,96320.59
2022-08-26T12:47:43.944Z,96317.86
2022-08-26T12:50:25.579Z,96316.21
2022-08-26T12:53:07.083Z,96312.85
2022-08-26T12:55:50.659Z,96314.23
2022-08-26T12:58:33.333Z,96312.61
2022-08-26T13:01:04.850Z,96312.67
2022-08-26T13:03:38.852Z,96308.78
2022-08-26T13:06:22.930Z,96310.27
2022-08-26T13:09:00.505Z,96307.91
2022-08-26T13:11:34.652Z,96304.60
2022-08-26T13:14:06.826Z,96300.95
2022-08-26T13:16:37.286Z,96298.40
2022-08-26T13:19:11.229Z,96300.92
2022-08-26T13:21:48.661Z,96301.74
2022-08-26T13:24:20.748Z,96297.62
2022-08-26T13:26:50.537Z,96303.09
2022-08-26T13:29:19.543Z,96299.44
2022-08-26T13:31:49.524Z,96297.66
2022-08-26T13:34:20.322Z,96292.33
2022-08-26T13:36:50.454Z,96290.81
2022-08-26T13:39:19.087Z,96289.95
2022-08-26T13:41:47.336Z,96289.89
2022-08-26T13:44:16.907Z,96291.15
2022-08-26T13:49:18.827Z,96287.08
2022-08-26T13:51:47.203Z,96287.25
2022-08-26T13:54:15.419Z,96291.42
2022-08-26T13:56:43.635Z,96292.13
2022-08-26T13:59:11.767Z,96295.09
2022-08-26T14:01:40.234Z,96292.02
2022-08-26T14:04:09.390Z,96294.34
2022-08-26T14:06:37.574Z,96289.38
2022-08-26T14:09:05.905Z,96289.66
2022-08-26T14:11:41.209Z,96289.00
2022-08-26T14:14:19.072Z,96283.55
2022-08-26T14:16:58.619Z,96281.20
2022-08-26T14:19:30.515Z,96277.19
2022-08-26T14:22:01.203Z,96277.57
2022-08-26T14:24:30.670Z,96275.66
2022-08-26T14:26:58.966Z,96266.21
2022-08-26T14:29:27.764Z,96269.89
2022-08-26T14:31:57.235Z,96267.39
2022-08-26T14:34:25.616Z,96269.14
2022-08-26T14:36:53.946Z,96264.35
2022-08-26T14:39:22.453Z,96264.91
2022-08-26T14:41:55.236Z,96263.05
2022-08-26T14:44:33.184Z,96262.33
2022-08-26T14:47:04.488Z,96262.72
2022-08-26T14:49:32.752Z,96260.68
2022-08-26T14:52:00.960Z,96262.05
2022-08-26T14:54:29.667Z,96260.11
2022-08-26T14:57:01.884Z,96257.92
2022-08-26T14:59:35.606Z,96261.89
2022-08-26T15:02:05.548Z,96263.34
2022-08-26T15:04:34.230Z,96262.15
2022-08-26T15:07:03.451Z,96261.30
2022-08-26T15:09:34.824Z,96261.16
2022-08-26T15:12:03.646Z,96259.17
2022-08-26T15:14:33.037Z,96257.42
2022-08-26T15:17:01.564Z,96258.20
2022-08-26T15:19:29.722Z,96259.24
2022-08-26T15:21:58.041Z,96254.45
2022-08-26T15:24:28.967Z,96252.48
2022-08-26T15:26:57.720Z,96251.28
2022-08-26T15:29:26.358Z,96249.23
2022-08-26T15:31:55.319Z,96247.48
2022-08-26T15:34:27.045Z,96248.27
2022-08-26T15:36:55.264Z,96247.54
2022-08-26T15:39:23.879Z,96244.45
2022-08-26T15:41:52.133Z,96244.73
2022-08-26T15:44:20.875Z,96241.51
2022-08-26T15:46:50.197Z,96244.27
2022-08-26T15:49:18.843Z,96240.82
2022-08-26T15:51:51.734Z,96240.89
2022-08-26T15:54:22.417Z,96244.86
2022-08-26T15:56:52.442Z,96246.30
2022-08-26T15:59:22.195Z,96244.77
2022-08-26T16:01:51.821Z,96241.63
2022-08-26T16:04:20.458Z,96237.44
2022-08-26T16:06:51.671Z,96238.41
2022-08-26T16:09:26.977Z,96244.50
2022-08-26T16:11:58.830Z,96242.65
2022-08-26T16:14:27.473Z,96237.65
2022-08-26T16:16:57.502Z,96238.61
2022-08-26T16:19:26.106Z,96239.49
2022-08-26T16:21:54.463Z,96239.04
2022-08-26T16:24:27.140Z,96237.02
2022-08-26T16:26:58.508Z,96239.04
2022-08-26T16:29:27.723Z,96239.60
2022-08-26T16:31:55.842Z,96238.52
2022-08-26T16:34:24.363Z,96236.95
2022-08-26T16:36:52.758Z,96237.49
2022-08-26T16:39:20.947Z,96239.44
2022-08-26T16:41:49.113Z,96240.74
2022-08-26T16:44:17.559Z,96239.10
2022-08-26T16:46:45.997Z,96241.20
2022-08-26T16:49:14.719Z,96237.38
2022-08-26T16:51:43.109Z,96238.55
2022-08-26T16:54:11.277Z,96237.13
2022-08-26T16:56:39.509Z,96238.15
2022-08-26T16:59:11.179Z,96238.44
2022-08-26T17:01:39.602Z,96237.84
2022-08-26T17:04:08.114Z,96239.92
2022-08-26T17:06:37.010Z,96243.84
2022-08-26T17:09:05.455Z,96246.52
2022-08-26T17:11:34.342Z,96248.23
2022-08-26T17:14:03.128Z,96251.05
2022-08-26T17:16:32.218Z,96249.30
2022-08-26T17:19:00.723Z,96248.92
2022-08-26T17:21:29.193Z,96253.98
2022-08-26T17:23:57.527Z,96253.95
2022-08-26T17:26:26.910Z,96253.45
2022-08-26T17:28:55.664Z,96251.33
2022-08-26T17:31:24.621Z,96255.35
2022-08-26T17:33:54.265Z,96252.33
2022-08-26T17:36:28.062Z,96256.73
2022-08-26T17:38:58.906Z,96257.61
2022-08-26T17:41:28.223Z,96259.83
2022-08-26T17:43:57.254Z,96258.92
2022-08-26T17:46:25.912Z,96250.77
2022-08-26T17:48:55.005Z,96259.73
2022-08-26T17:51:24.329Z,96263.88
2022-08-26T17:53:52.867Z,96266.17
2022-08-26T17:56:26.738Z,96265.86
2022-08-26T17:59:02.515Z,96267.67
2022-08-26T18:01:32.781Z,96266.20
2022-08-26T18:04:01.486Z,96263.91
2022-08-26T18:06:30.915Z,96268.61
2022-08-26T18:09:00.759Z,96268.02
2022-08-26T18:11:29.566Z,96266.59
2022-08-26T18:13:58.416Z,96264.23
2022-08-26T18:16:27.556Z,96267.22
2022-08-26T18:18:55.738Z,96267.73
2022-08-26T18:21:26.263Z,96266.64
2022-08-26T18:23:55.019Z,96264.42
2022-08-26T18:26:29.643Z,96264.27
2022-08-26T18:28:58.828Z,96263.98
2022-08-26T18:31:27.884Z,96266.95
2022-08-26T18:33:56.657Z,96265.13
2022-08-26T18:36:29.330Z,96262.56
2022-08-26T18:38:59.563Z,96259.70
2022-08-26T18:41:30.490Z,96258.43
2022-08-26T18:43:59.911Z,96261.20
2022-08-26T18:46:28.626Z,96264.84
2022-08-26T18:48:57.822Z,96268.70
2022-08-26T18:51:31.655Z,96267.83
2022-08-26T18:54:02.523Z,96264.49
2022-08-26T18:56:30.937Z,96263.02
2022-08-26T18:59:00.104Z,96263.07
2022-08-26T19:01:30.460Z,96266.29
2022-08-26T19:04:01.423Z,96268.66
2022-08-26T19:06:33.113Z,96271.69
2022-08-26T19:09:02.414Z,96269.84
2022-08-26T19:11:42.336Z,96267.96
2022-08-26T19:14:15.153Z,96269.36
2022-08-26T19:16:46.498Z,96271.58
2022-08-26T19:19:15.751Z,96269.60
2022-08-26T19:21:44.328Z,96267.85
2022-08-26T19:24:15.867Z,96269.89
2022-08-26T19:26:47.025Z,96269.21
2022-08-26T19:31:49.697Z,96268.40
2022-08-26T19:34:20.753Z,96267.66
2022-08-26T19:36:50.376Z,96270.25
2022-08-26T19:39:18.953Z,96269.55
2022-08-26T19:41:47.311Z,96269.45
2022-08-26T19:44:39.068Z,96266.65
2022-08-26T19:47:09.064Z,96265.85
2022-08-26T19:49:37.873Z,96269.30
2022-08-26T19:52:06.586Z,96270.33
2022-08-26T19:54:36.315Z,96271.33
2022-08-26T19:57:05.815Z,96271.41
2022-08-26T19:59:33.997Z,96270.52
2022-08-26T20:02:07.122Z,96275.27
2022-08-26T20:04:39.250Z,96280.55
2022-08-26T20:07:12.039Z,96280.87
2022-08-26T20:09:41.967Z,96282.20
2022-08-26T20:12:10.093Z,96283.33
2022-08-26T20:14:38.337Z,96272.91
2022-08-26T20:17:06.864Z,96283.05
2022-08-26T20:19:54.493Z,96283.08
2022-08-26T20:22:23.008Z,96281.50
2022-08-26T20:24:52.355Z,96283.36
2022-08-26T20:27:27.642Z,96286.71
2022-08-26T20:30:09.135Z,96285.26
2022-08-26T20:32:39.652Z,96288.26
2022-08-26T20:35:11.513Z,96287.66
2022-08-26T20:37:40.802Z,96287.15
2022-08-26T20:40:11.751Z,96286.94
2022-08-26T20:42:40.125Z,96286.79
2022-08-26T20:45:09.091Z,96281.79
2022-08-26T20:47:38.893Z,96280.73
2022-08-26T20:50:08.757Z,96283.61
2022-08-26T20:52:36.968Z,96283.41
2022-08-26T20:55:05.729Z,96284.77
2022-08-26T20:57:34.063Z,96288.44
2022-08-26T21:00:02.383Z,96290.55
2022-08-26T21:02:31.714Z,96296.41
2022-08-26T21:05:00.690Z,96300.09
2022-08-26T21:07:31.130Z,96299.88
2022-08-26T21:10:00.601Z,96300.85
2022-08-26T21:12:28.991Z,96307.98
2022-08-26T21:14:57.222Z,96308.73
2022-08-26T21:17:25.736Z,96309.13
2022-08-26T21:19:54.347Z,96306.38
2022-08-26T21:22:22.741Z,96309.92
2022-08-26T21:24:50.874Z,96308.40
2022-08-26T21:27:26.087Z,96309.30
2022-08-26T21:29:55.567Z,96306.15
2022-08-26T21:32:23.970Z,96305.65
2022-08-26T21:34:56.820Z,96303.77
2022-08-26T21:37:26.390Z,96299.61
2022-08-26T21:39:59.414Z,96299.23
2022-08-26T21:42:31.861Z,96299.00
2022-08-26T21:45:01.852Z,96297.29
2022-08-26T21:47:32.291Z,96297.94
2022-08-26T21:50:00.975Z,96302.36
2022-08-26T21:52:30.194Z,96301.76
2022-08-26T21:55:00.635Z,96303.48
2022-08-26T21:57:30.171Z,96302.41
2022-08-26T21:59:58.731Z,96307.70
2022-08-26T22:02:27.111Z,96305.58
2022-08-26T22:04:56.519Z,96303.09
2022-08-26T22:07:24.574Z,96304.81
2022-08-26T22:09:52.779Z,96305.91
2022-08-26T22:12:20.908Z,96306.33
2022-08-26T22:14:49.386Z,96308.59
2022-08-26T22:17:17.645Z,96306.86
2022-08-26T22:19:46.798Z,96309.45
2022-08-26T22:22:16.112Z,96304.23
2022-08-26T22:24:44.642Z,96302.58
2022-08-26T22:27:14.004Z,96301.73
2022-08-26T22:29:42.202Z,96297.35
2022-08-26T22:32:10.946Z,96298.08
2022-08-26T22:34:39.909Z,96298.05
2022-08-26T22:37:08.218Z,96295.17
2022-08-26T22:39:36.399Z,96293.14
2022-08-26T22:42:04.902Z,96293.59
2022-08-26T22:44:33.339Z,96295.04
2022-08-26T22:47:01.498Z,96293.31
2022-08-26T22:49:29.751Z,96293.77
2022-08-26T22:51:58.335Z,96289.88
2022-08-26T22:54:28.241Z,96293.58
2022-08-26T22:56:56.295Z,96294.83
2022-08-26T22:59:24.600Z,96294.04
2022-08-26T23:01:52.790Z,96293.39
2022-08-26T23:04:21.280Z,96296.36
2022-08-26T23:06:49.928Z,96300.11
2022-08-26T23:09:19.412Z,96300.75
2022-08-26T23:11:49.466Z,96303.16
2022-08-26T23:14:19.215Z,96302.92
2022-08-26T23:16:47.970Z,96306.30
2022-08-26T23:19:20.390Z,96311.59
2022-08-26T23:21:49.982Z,96309.53
2022-08-26T23:24:18.751Z,96308.23
2022-08-26T23:26:47.019Z,96308.58
2022-08-26T23:29:16.194Z,96305.08
2022-08-26T23:31:44.982Z,96303.96
2022-08-26T23:34:33.012Z,96298.95
2022-08-26T23:37:02.139Z,96295.91
2022-08-26T23:39:35.367Z,96294.23
2022-08-26T23:42:04.463Z,96294.95
2022-08-26T23:44:33.197Z,96293.98
2022-08-26T23:47:01.944Z,96297.36
2022-08-26T23:49:31.070Z,96292.83
2022-08-26T23:52:18.346Z,96292.30
2022-08-26T23:54:48.878Z,96290.20
2022-08-26T23:57:18.663Z,96283.96
2022-08-26T23:59:48.723Z,96283.04
